Airport View

Enter AWOS ICAO identifier for current METAR.

ex. KFNL

KSNC 170945Z AUTO 01007KT 10SM CLR M04/M14 A3039 RMK AO2

17 Nov 2019 09:47

Frequency: 118.325

Phone: 860-526-1551

Other Area AWOS: KMMK - KHVN - KGON - KHFD

TAF KGON 170540Z 1706/1806 01010KT P6SM SKC FM171300 05014KT P6SM BKN035 FM171600 05015G24KT P6SM BKN030 FM180400 03015G25KT P6SM BKN020